createdAt,value
2018-03-26T16:21:07.956Z,59.23
2018-03-26T16:23:35.340Z,58.20
2018-03-26T16:26:01.737Z,72.80
2018-03-26T16:28:28.782Z,62.30
2018-03-26T16:30:55.909Z,67.60
2018-03-26T16:33:22.193Z,64.63
2018-03-26T16:35:48.539Z,61.27
2018-03-26T16:38:16.949Z,68.83
2018-03-26T16:40:43.324Z,67.10
2018-03-26T16:43:09.724Z,64.63
2018-03-26T16:45:36.078Z,71.63
2018-03-26T16:48:02.396Z,63.53
2018-03-26T16:50:29.859Z,73.90
2018-03-26T16:52:56.968Z,73.83
2018-03-26T16:55:23.364Z,76.13
2018-03-26T16:57:49.728Z,72.50
2018-03-26T17:00:16.132Z,76.67
2018-03-26T17:02:42.465Z,71.00
2018-03-26T17:05:08.850Z,77.13
2018-03-26T17:07:36.078Z,73.67
2018-03-26T17:10:02.449Z,72.90
2018-03-26T17:12:29.637Z,70.30
2018-03-26T17:14:56.027Z,73.77
2018-03-26T17:17:22.438Z,70.23
2018-03-26T17:19:53.622Z,71.73
2018-03-26T17:22:20.087Z,67.00
2018-03-26T17:24:46.438Z,70.77
2018-03-26T17:27:13.592Z,69.23
2018-03-26T17:29:40.783Z,75.23
2018-03-26T17:32:07.377Z,68.53
2018-03-26T17:34:33.763Z,68.13
2018-03-26T17:37:00.143Z,64.17
2018-03-26T17:39:26.461Z,64.43
2018-03-26T17:41:52.826Z,60.93
2018-03-26T17:44:19.214Z,56.00
2018-03-26T17:46:45.577Z,59.87
2018-03-26T17:49:11.926Z,69.63
2018-03-26T17:51:38.271Z,59.37
2018-03-26T17:54:05.371Z,63.20
2018-03-26T17:56:31.682Z,68.40
2018-03-26T17:58:58.039Z,68.17
2018-03-26T18:01:24.335Z,66.87
2018-03-26T18:03:51.396Z,69.77
2018-03-26T18:06:17.841Z,71.40
2018-03-26T18:08:44.161Z,60.13
2018-03-26T18:11:10.451Z,64.63
2018-03-26T18:13:37.506Z,59.63
2018-03-26T18:16:04.852Z,70.33
2018-03-26T18:18:31.221Z,66.57
2018-03-26T18:20:57.534Z,55.27
2018-03-26T18:23:24.935Z,59.20
2018-03-26T18:25:52.089Z,60.10
2018-03-26T18:28:18.369Z,67.00
2018-03-26T18:30:45.395Z,61.23
2018-03-26T18:33:11.726Z,67.30
2018-03-26T18:35:38.926Z,57.10
2018-03-26T18:38:05.265Z,60.77
2018-03-26T18:40:31.613Z,57.30
2018-03-26T18:42:57.970Z,56.80
2018-03-26T18:45:24.376Z,62.10
2018-03-26T18:47:50.710Z,57.33
2018-03-26T18:50:17.019Z,54.30
2018-03-26T18:52:43.336Z,51.13
2018-03-26T18:55:09.687Z,58.57
2018-03-26T18:57:36.066Z,53.87
2018-03-26T19:00:03.219Z,53.97
2018-03-26T19:02:30.332Z,53.03
2018-03-26T19:04:56.747Z,49.93
2018-03-26T19:07:23.208Z,50.37
2018-03-26T19:09:49.525Z,46.87
2018-03-26T19:12:15.953Z,48.27
2018-03-26T19:14:42.241Z,48.60
2018-03-26T19:17:09.395Z,42.77
2018-03-26T19:19:35.750Z,50.00
2018-03-26T19:22:02.971Z,45.30
2018-03-26T19:24:30.045Z,44.47
2018-03-26T19:26:56.344Z,40.57
2018-03-26T19:29:23.426Z,43.73
2018-03-26T19:31:49.749Z,40.60
2018-03-26T19:34:16.840Z,41.03
2018-03-26T19:36:43.224Z,38.57
2018-03-26T19:39:10.288Z,42.60
2018-03-26T19:41:36.623Z,42.10
2018-03-26T19:44:02.919Z,44.03
2018-03-26T19:46:29.307Z,35.57
2018-03-26T19:48:55.683Z,43.90
2018-03-26T19:51:22.016Z,40.37
2018-03-26T19:53:48.279Z,36.37
2018-03-26T19:56:14.913Z,42.90
2018-03-26T19:58:41.258Z,47.87
2018-03-26T20:01:07.574Z,41.47
2018-03-26T20:03:34.129Z,47.07
2018-03-26T20:06:00.600Z,43.83
2018-03-26T20:08:27.009Z,40.70
2018-03-26T20:10:53.387Z,38.33
2018-03-26T20:13:20.418Z,38.30
2018-03-26T20:15:46.705Z,35.67
2018-03-26T20:18:13.024Z,37.20
2018-03-26T20:20:39.412Z,41.40
2018-03-26T20:23:06.538Z,39.50
2018-03-26T20:25:32.808Z,36.67
2018-03-26T20:27:59.061Z,36.67
2018-03-26T20:30:25.357Z,38.83
2018-03-26T20:32:51.695Z,35.30
2018-03-26T20:35:18.103Z,36.43
2018-03-26T20:37:44.389Z,38.03
2018-03-26T20:40:10.691Z,33.57
2018-03-26T20:42:37.774Z,38.63
2018-03-26T20:45:04.091Z,36.33
2018-03-26T20:47:30.390Z,40.90
2018-03-26T20:49:57.472Z,38.97
2018-03-26T20:52:24.510Z,41.97
2018-03-26T20:54:51.615Z,36.57
2018-03-26T20:57:17.906Z,38.00
2018-03-26T20:59:44.164Z,46.10
2018-03-26T21:02:10.494Z,38.47
2018-03-26T21:04:37.190Z,37.03
2018-03-26T21:07:04.280Z,33.60
2018-03-26T21:09:30.599Z,39.80
2018-03-26T21:11:56.941Z,37.20
2018-03-26T21:14:23.258Z,40.97
2018-03-26T21:16:49.560Z,37.30
2018-03-26T21:19:15.892Z,37.43
2018-03-26T21:21:42.937Z,34.27
2018-03-26T21:24:10.824Z,31.03
2018-03-26T21:26:37.117Z,33.43
2018-03-26T21:29:04.038Z,34.57
2018-03-26T21:31:30.342Z,34.43
2018-03-26T21:33:56.640Z,36.87
2018-03-26T21:36:23.671Z,35.13
2018-03-26T21:38:49.958Z,34.67
2018-03-26T21:41:16.270Z,31.60
2018-03-26T21:43:42.542Z,33.90
2018-03-26T21:46:08.840Z,36.90
2018-03-26T21:48:35.168Z,38.13
2018-03-26T21:51:01.472Z,33.97
2018-03-26T21:53:28.507Z,36.13
2018-03-26T21:55:54.791Z,34.70
2018-03-26T21:58:21.101Z,32.70
2018-03-26T22:00:47.345Z,43.63
2018-03-26T22:03:13.624Z,37.30
2018-03-26T22:05:39.899Z,37.97
2018-03-26T22:08:06.205Z,40.00
2018-03-26T22:10:33.267Z,34.77
2018-03-26T22:12:59.785Z,38.73
2018-03-26T22:15:33.096Z,34.13
2018-03-26T22:17:59.412Z,35.97
2018-03-26T22:20:26.475Z,40.00
2018-03-26T22:22:52.711Z,39.50
2018-03-26T22:25:19.042Z,42.47
2018-03-26T22:27:45.263Z,41.47
2018-03-26T22:30:12.569Z,36.63
2018-03-26T22:32:38.882Z,32.57
2018-03-26T22:35:05.147Z,35.53
2018-03-26T22:37:31.424Z,33.47
2018-03-26T22:39:57.660Z,34.17
2018-03-26T22:42:23.970Z,38.30
2018-03-26T22:44:50.317Z,36.87
2018-03-26T22:47:17.373Z,40.13
2018-03-26T22:49:43.650Z,40.43
2018-03-26T22:52:10.940Z,36.27
2018-03-26T22:54:37.182Z,42.67
2018-03-26T22:57:03.476Z,39.17
2018-03-26T22:59:30.522Z,39.90
2018-03-26T23:01:57.564Z,46.37
2018-03-26T23:04:23.899Z,44.00
2018-03-26T23:06:50.899Z,46.53
2018-03-26T23:09:17.255Z,46.00
2018-03-26T23:11:44.265Z,50.70
2018-03-26T23:14:10.575Z,51.50
2018-03-26T23:16:37.587Z,46.23
2018-03-26T23:19:03.941Z,46.47
2018-03-26T23:21:30.978Z,48.63
2018-03-26T23:23:57.291Z,46.07
2018-03-26T23:26:23.622Z,46.50
2018-03-26T23:28:49.959Z,52.33
2018-03-26T23:31:16.227Z,52.13
2018-03-26T23:33:42.570Z,50.20
2018-03-26T23:36:08.904Z,54.87
2018-03-26T23:38:35.236Z,49.43
2018-03-26T23:41:01.580Z,63.53
2018-03-26T23:43:27.867Z,53.70
2018-03-26T23:45:54.906Z,60.77
2018-03-26T23:48:21.288Z,50.60
2018-03-26T23:50:47.616Z,47.93
2018-03-26T23:53:13.928Z,51.40
2018-03-26T23:55:40.260Z,53.40
2018-03-26T23:58:06.595Z,61.87
